sensor_id;sensor_type;location;lat;lon;timestamp;pressure;altitude;pressure_sealevel;temperature;humidity
69751;BME280;57335;52.288;6.056;2023-06-22T00:02:19;101975.06;;;16.38;100.00
69751;BME280;57335;52.288;6.056;2023-06-22T00:04:45;101970.56;;;16.39;100.00
69751;BME280;57335;52.288;6.056;2023-06-22T00:07:12;101978.31;;;16.40;100.00
69751;BME280;57335;52.288;6.056;2023-06-22T00:09:38;101975.06;;;16.38;100.00
69751;BME280;57335;52.288;6.056;2023-06-22T00:12:05;101960.22;;;16.37;100.00
69751;BME280;57335;52.288;6.056;2023-06-22T00:14:31;101967.34;;;16.37;100.00
69751;BME280;57335;52.288;6.056;2023-06-22T00:16:58;101968.59;;;16.34;100.00
69751;BME280;57335;52.288;6.056;2023-06-22T00:19:24;101966.56;;;16.29;100.00
69751;BME280;57335;52.288;6.056;2023-06-22T00:21:51;101960.75;;;16.21;100.00
69751;BME280;57335;52.288;6.056;2023-06-22T00:24:21;101957.94;;;16.15;100.00
69751;BME280;57335;52.288;6.056;2023-06-22T00:26:50;101958.78;;;16.09;100.00
69751;BME280;57335;52.288;6.056;2023-06-22T00:29:17;101966.38;;;16.06;100.00
69751;BME280;57335;52.288;6.056;2023-06-22T00:31:43;101949.72;;;15.99;100.00
69751;BME280;57335;52.288;6.056;2023-06-22T00:34:10;101952.38;;;15.99;100.00
69751;BME280;57335;52.288;6.056;2023-06-22T00:36:36;101939.56;;;15.95;100.00
69751;BME280;57335;52.288;6.056;2023-06-22T00:39:03;101948.16;;;15.91;100.00
69751;BME280;57335;52.288;6.056;2023-06-22T00:41:30;101941.88;;;15.85;100.00
69751;BME280;57335;52.288;6.056;2023-06-22T00:43:56;101938.66;;;15.83;100.00
69751;BME280;57335;52.288;6.056;2023-06-22T00:46:23;101938.50;;;15.78;100.00
69751;BME280;57335;52.288;6.056;2023-06-22T00:48:51;101941.38;;;15.70;100.00
69751;BME280;57335;52.288;6.056;2023-06-22T00:51:18;101945.66;;;15.64;100.00
69751;BME280;57335;52.288;6.056;2023-06-22T00:53:45;101937.78;;;15.58;100.00
69751;BME280;57335;52.288;6.056;2023-06-22T00:56:11;101939.00;;;15.55;100.00
69751;BME280;57335;52.288;6.056;2023-06-22T00:58:38;101936.78;;;15.52;100.00
69751;BME280;57335;52.288;6.056;2023-06-22T01:01:05;101925.25;;;15.46;100.00
69751;BME280;57335;52.288;6.056;2023-06-22T01:03:31;101932.56;;;15.44;100.00
69751;BME280;57335;52.288;6.056;2023-06-22T01:06:07;101932.16;;;15.41;100.00
69751;BME280;57335;52.288;6.056;2023-06-22T01:09:12;101939.50;;;15.39;100.00
69751;BME280;57335;52.288;6.056;2023-06-22T01:11:53;101946.22;;;15.34;100.00
69751;BME280;57335;52.288;6.056;2023-06-22T01:14:27;101941.97;;;15.33;100.00
69751;BME280;57335;52.288;6.056;2023-06-22T01:16:54;101945.03;;;15.30;100.00
69751;BME280;57335;52.288;6.056;2023-06-22T01:19:50;101948.91;;;15.28;100.00
69751;BME280;57335;52.288;6.056;2023-06-22T01:22:21;101944.81;;;15.25;100.00
69751;BME280;57335;52.288;6.056;2023-06-22T01:25:00;101960.06;;;15.23;100.00
69751;BME280;57335;52.288;6.056;2023-06-22T01:30:03;101944.91;;;15.12;100.00
69751;BME280;57335;52.288;6.056;2023-06-22T01:32:33;101944.09;;;15.05;100.00
69751;BME280;57335;52.288;6.056;2023-06-22T01:35:01;101948.78;;;15.03;100.00
69751;BME280;57335;52.288;6.056;2023-06-22T01:37:29;101945.34;;;15.02;100.00
69751;BME280;57335;52.288;6.056;2023-06-22T01:39:57;101938.84;;;14.98;100.00
69751;BME280;57335;52.288;6.056;2023-06-22T01:42:25;101934.38;;;14.99;100.00
69751;BME280;57335;52.288;6.056;2023-06-22T01:44:53;101944.34;;;14.96;100.00
69751;BME280;57335;52.288;6.056;2023-06-22T01:47:22;101937.84;;;14.92;100.00
69751;BME280;57335;52.288;6.056;2023-06-22T01:49:50;101937.88;;;14.86;100.00
69751;BME280;57335;52.288;6.056;2023-06-22T01:52:18;101935.63;;;14.83;100.00
69751;BME280;57335;52.288;6.056;2023-06-22T01:54:45;101934.03;;;14.75;100.00
69751;BME280;57335;52.288;6.056;2023-06-22T01:57:11;101933.66;;;14.71;100.00
69751;BME280;57335;52.288;6.056;2023-06-22T01:59:45;101933.25;;;14.68;100.00
69751;BME280;57335;52.288;6.056;2023-06-22T02:02:17;101934.44;;;14.65;100.00
69751;BME280;57335;52.288;6.056;2023-06-22T02:04:54;101925.31;;;14.61;100.00
69751;BME280;57335;52.288;6.056;2023-06-22T02:07:23;101926.38;;;14.60;100.00
69751;BME280;57335;52.288;6.056;2023-06-22T02:09:51;101920.69;;;14.56;100.00
69751;BME280;57335;52.288;6.056;2023-06-22T02:12:25;101921.28;;;14.52;100.00
69751;BME280;57335;52.288;6.056;2023-06-22T02:14:52;101918.84;;;14.50;100.00
69751;BME280;57335;52.288;6.056;2023-06-22T02:17:19;101919.25;;;14.47;100.00
69751;BME280;57335;52.288;6.056;2023-06-22T02:19:46;101924.75;;;14.46;100.00
69751;BME280;57335;52.288;6.056;2023-06-22T02:22:12;101921.69;;;14.42;100.00
69751;BME280;57335;52.288;6.056;2023-06-22T02:24:39;101914.19;;;14.39;100.00
69751;BME280;57335;52.288;6.056;2023-06-22T02:27:06;101920.06;;;14.41;100.00
69751;BME280;57335;52.288;6.056;2023-06-22T02:29:32;101917.22;;;14.36;100.00
69751;BME280;57335;52.288;6.056;2023-06-22T02:31:59;101912.16;;;14.34;100.00
69751;BME280;57335;52.288;6.056;2023-06-22T02:34:25;101914.38;;;14.31;100.00
69751;BME280;57335;52.288;6.056;2023-06-22T02:36:52;101920.09;;;14.28;100.00
69751;BME280;57335;52.288;6.056;2023-06-22T02:39:23;101920.88;;;14.28;100.00
69751;BME280;57335;52.288;6.056;2023-06-22T02:41:51;101917.44;;;14.28;100.00
69751;BME280;57335;52.288;6.056;2023-06-22T02:44:18;101926.78;;;14.24;100.00
69751;BME280;57335;52.288;6.056;2023-06-22T02:46:45;101922.31;;;14.24;100.00
69751;BME280;57335;52.288;6.056;2023-06-22T02:49:12;101928.38;;;14.25;100.00
69751;BME280;57335;52.288;6.056;2023-06-22T02:51:42;101915.44;;;14.23;100.00
69751;BME280;57335;52.288;6.056;2023-06-22T02:54:08;101915.44;;;14.23;100.00
69751;BME280;57335;52.288;6.056;2023-06-22T02:56:35;101926.34;;;14.27;100.00
69751;BME280;57335;52.288;6.056;2023-06-22T02:59:02;101926.34;;;14.27;100.00
69751;BME280;57335;52.288;6.056;2023-06-22T03:01:28;101922.28;;;14.31;100.00
69751;BME280;57335;52.288;6.056;2023-06-22T03:03:58;101915.81;;;14.33;100.00
69751;BME280;57335;52.288;6.056;2023-06-22T03:06:25;101923.94;;;14.32;100.00
69751;BME280;57335;52.288;6.056;2023-06-22T03:08:51;101911.75;;;14.31;100.00
69751;BME280;57335;52.288;6.056;2023-06-22T03:11:18;101912.97;;;14.35;100.00
69751;BME280;57335;52.288;6.056;2023-06-22T03:13:44;101914.59;;;14.36;100.00
69751;BME280;57335;52.288;6.056;2023-06-22T03:16:11;101906.69;;;14.36;100.00
69751;BME280;57335;52.288;6.056;2023-06-22T03:18:37;101914.00;;;14.34;100.00
69751;BME280;57335;52.288;6.056;2023-06-22T03:21:04;101912.34;;;14.33;100.00
69751;BME280;57335;52.288;6.056;2023-06-22T03:23:30;101904.88;;;14.30;100.00
69751;BME280;57335;52.288;6.056;2023-06-22T03:25:57;101908.13;;;14.32;100.00
69751;BME280;57335;52.288;6.056;2023-06-22T03:28:23;101906.09;;;14.34;100.00
69751;BME280;57335;52.288;6.056;2023-06-22T03:30:50;101908.13;;;14.32;100.00
69751;BME280;57335;52.288;6.056;2023-06-22T03:33:16;101921.47;;;14.37;100.00
69751;BME280;57335;52.288;6.056;2023-06-22T03:35:43;101910.31;;;14.35;100.00
69751;BME280;57335;52.288;6.056;2023-06-22T03:38:09;101909.94;;;14.38;100.00
69751;BME280;57335;52.288;6.056;2023-06-22T03:40:35;101903.25;;;14.35;100.00
69751;BME280;57335;52.288;6.056;2023-06-22T03:43:02;101908.53;;;14.35;100.00
69751;BME280;57335;52.288;6.056;2023-06-22T03:45:28;101896.34;;;14.34;100.00
69751;BME280;57335;52.288;6.056;2023-06-22T03:47:55;101897.13;;;14.35;100.00
69751;BME280;57335;52.288;6.056;2023-06-22T03:50:22;101885.38;;;14.31;100.00
69751;BME280;57335;52.288;6.056;2023-06-22T03:52:48;101890.47;;;14.32;100.00
69751;BME280;57335;52.288;6.056;2023-06-22T03:55:14;101891.25;;;14.33;100.00
69751;BME280;57335;52.288;6.056;2023-06-22T03:57:41;101896.13;;;14.36;100.00
69751;BME280;57335;52.288;6.056;2023-06-22T04:00:08;101893.53;;;14.29;100.00
69751;BME280;57335;52.288;6.056;2023-06-22T04:02:34;101897.97;;;14.22;100.00
69751;BME280;57335;52.288;6.056;2023-06-22T04:05:01;101898.38;;;14.12;100.00
69751;BME280;57335;52.288;6.056;2023-06-22T04:07:30;101893.53;;;14.09;100.00
69751;BME280;57335;52.288;6.056;2023-06-22T04:09:56;101902.84;;;14.12;100.00
69751;BME280;57335;52.288;6.056;2023-06-22T04:12:23;101891.28;;;14.13;100.00
69751;BME280;57335;52.288;6.056;2023-06-22T04:14:49;101886.84;;;14.13;100.00
69751;BME280;57335;52.288;6.056;2023-06-22T04:17:16;101885.41;;;14.18;100.00
69751;BME280;57335;52.288;6.056;2023-06-22T04:19:42;101890.69;;;14.18;100.00
69751;BME280;57335;52.288;6.056;2023-06-22T04:22:09;101886.81;;;14.20;100.00
69751;BME280;57335;52.288;6.056;2023-06-22T04:24:35;101887.03;;;14.25;100.00
69751;BME280;57335;52.288;6.056;2023-06-22T04:27:02;101896.53;;;14.33;100.00
69751;BME280;57335;52.288;6.056;2023-06-22T04:29:31;101897.94;;;14.42;100.00
69751;BME280;57335;52.288;6.056;2023-06-22T04:31:57;101897.09;;;14.55;100.00
69751;BME280;57335;52.288;6.056;2023-06-22T04:34:24;101898.75;;;14.69;100.00
69751;BME280;57335;52.288;6.056;2023-06-22T04:36:51;101894.00;;;14.85;100.00
69751;BME280;57335;52.288;6.056;2023-06-22T04:39:17;101891.72;;;15.02;100.00
69751;BME280;57335;52.288;6.056;2023-06-22T04:41:44;101881.09;;;15.22;100.00
69751;BME280;57335;52.288;6.056;2023-06-22T04:44:15;101879.78;;;15.38;100.00
69751;BME280;57335;52.288;6.056;2023-06-22T04:46:41;101886.16;;;15.55;100.00
69751;BME280;57335;52.288;6.056;2023-06-22T04:49:08;101877.69;;;15.71;100.00
69751;BME280;57335;52.288;6.056;2023-06-22T04:51:42;101878.63;;;15.90;100.00
69751;BME280;57335;52.288;6.056;2023-06-22T04:54:09;101872.50;;;16.15;100.00
69751;BME280;57335;52.288;6.056;2023-06-22T04:56:36;101877.25;;;16.50;100.00
69751;BME280;57335;52.288;6.056;2023-06-22T04:59:02;101875.22;;;16.89;100.00
69751;BME280;57335;52.288;6.056;2023-06-22T05:01:29;101878.81;;;17.25;100.00
69751;BME280;57335;52.288;6.056;2023-06-22T05:03:56;101873.06;;;17.58;100.00
69751;BME280;57335;52.288;6.056;2023-06-22T05:06:24;101874.97;;;17.93;100.00
69751;BME280;57335;52.288;6.056;2023-06-22T05:08:54;101882.94;;;18.17;100.00
69751;BME280;57335;52.288;6.056;2023-06-22T05:11:20;101886.03;;;18.37;100.00
69751;BME280;57335;52.288;6.056;2023-06-22T05:13:47;101888.88;;;18.59;100.00
69751;BME280;57335;52.288;6.056;2023-06-22T05:16:13;101883.66;;;18.76;100.00
69751;BME280;57335;52.288;6.056;2023-06-22T05:18:40;101884.75;;;19.04;100.00
69751;BME280;57335;52.288;6.056;2023-06-22T05:21:06;101887.47;;;19.38;100.00
69751;BME280;57335;52.288;6.056;2023-06-22T05:23:33;101884.44;;;19.75;100.00
69751;BME280;57335;52.288;6.056;2023-06-22T05:25:59;101883.09;;;20.11;100.00
69751;BME280;57335;52.288;6.056;2023-06-22T05:28:26;101883.03;;;20.45;96.00
69751;BME280;57335;52.288;6.056;2023-06-22T05:30:52;101889.97;;;20.90;94.04
69751;BME280;57335;52.288;6.056;2023-06-22T05:33:19;101886.94;;;21.30;90.57
69751;BME280;57335;52.288;6.056;2023-06-22T05:35:46;101884.34;;;21.68;88.17
69751;BME280;57335;52.288;6.056;2023-06-22T05:38:13;101889.69;;;22.05;87.01
69751;BME280;57335;52.288;6.056;2023-06-22T05:40:40;101882.94;;;22.35;84.69
69751;BME280;57335;52.288;6.056;2023-06-22T05:43:06;101887.09;;;22.74;82.53
69751;BME280;57335;52.288;6.056;2023-06-22T05:45:33;101888.53;;;23.07;79.22
69751;BME280;57335;52.288;6.056;2023-06-22T05:47:59;101892.63;;;23.50;81.83
69751;BME280;57335;52.288;6.056;2023-06-22T05:50:25;101887.22;;;24.12;80.10
69751;BME280;57335;52.288;6.056;2023-06-22T05:52:52;101896.44;;;24.66;71.95
69751;BME280;57335;52.288;6.056;2023-06-22T05:55:18;101901.16;;;24.84;73.09
69751;BME280;57335;52.288;6.056;2023-06-22T05:57:45;101901.09;;;25.00;72.71
69751;BME280;57335;52.288;6.056;2023-06-22T06:00:12;101896.06;;;25.33;72.84
69751;BME280;57335;52.288;6.056;2023-06-22T06:02:39;101897.31;;;25.75;72.46
69751;BME280;57335;52.288;6.056;2023-06-22T06:05:06;101898.00;;;25.91;68.05
69751;BME280;57335;52.288;6.056;2023-06-22T06:07:32;101895.50;;;25.99;70.04
69751;BME280;57335;52.288;6.056;2023-06-22T06:09:58;101905.34;;;26.09;69.28
69751;BME280;57335;52.288;6.056;2023-06-22T06:12:25;101900.75;;;26.10;68.85
69751;BME280;57335;52.288;6.056;2023-06-22T06:14:51;101904.78;;;26.12;68.26
69751;BME280;57335;52.288;6.056;2023-06-22T06:17:18;101902.53;;;26.19;68.98
69751;BME280;57335;52.288;6.056;2023-06-22T06:19:44;101896.13;;;26.63;65.23
69751;BME280;57335;52.288;6.056;2023-06-22T06:22:11;101901.22;;;27.41;65.10
69751;BME280;57335;52.288;6.056;2023-06-22T06:24:37;101898.75;;;27.91;61.55
69751;BME280;57335;52.288;6.056;2023-06-22T06:27:04;101900.56;;;28.37;61.96
69751;BME280;57335;52.288;6.056;2023-06-22T06:29:31;101896.66;;;28.94;57.13
69751;BME280;57335;52.288;6.056;2023-06-22T06:31:58;101897.06;;;29.46;54.74
69751;BME280;57335;52.288;6.056;2023-06-22T06:34:25;101901.19;;;29.75;53.48
69751;BME280;57335;52.288;6.056;2023-06-22T06:36:51;101889.78;;;30.18;51.01
69751;BME280;57335;52.288;6.056;2023-06-22T06:39:17;101895.25;;;30.53;47.88
69751;BME280;57335;52.288;6.056;2023-06-22T06:41:44;101893.19;;;30.41;48.86
69751;BME280;57335;52.288;6.056;2023-06-22T06:44:10;101898.28;;;30.34;48.85
69751;BME280;57335;52.288;6.056;2023-06-22T06:46:37;101880.91;;;30.35;49.90
69751;BME280;57335;52.288;6.056;2023-06-22T06:49:03;101879.81;;;30.45;49.95
69751;BME280;57335;52.288;6.056;2023-06-22T06:51:30;101880.41;;;30.24;48.25
69751;BME280;57335;52.288;6.056;2023-06-22T06:53:56;101878.13;;;30.09;50.64
69751;BME280;57335;52.288;6.056;2023-06-22T06:56:23;101882.44;;;30.18;50.15
69751;BME280;57335;52.288;6.056;2023-06-22T06:58:50;101879.81;;;30.45;47.37
69751;BME280;57335;52.288;6.056;2023-06-22T07:01:17;101879.38;;;30.51;48.57
69751;BME280;57335;52.288;6.056;2023-06-22T07:03:47;101886.69;;;30.77;48.04
69751;BME280;57335;52.288;6.056;2023-06-22T07:06:14;101879.41;;;31.04;48.15
69751;BME280;57335;52.288;6.056;2023-06-22T07:08:40;101871.22;;;31.30;48.03
69751;BME280;57335;52.288;6.056;2023-06-22T07:11:07;101871.81;;;31.62;46.80
69751;BME280;57335;52.288;6.056;2023-06-22T07:13:33;101877.22;;;31.91;46.45
69751;BME280;57335;52.288;6.056;2023-06-22T07:15:59;101877.97;;;32.09;44.08
69751;BME280;57335;52.288;6.056;2023-06-22T07:18:26;101864.06;;;32.19;45.09
69751;BME280;57335;52.288;6.056;2023-06-22T07:20:52;101867.81;;;32.27;44.24
69751;BME280;57335;52.288;6.056;2023-06-22T07:23:19;101851.28;;;32.41;44.82
69751;BME280;57335;52.288;6.056;2023-06-22T07:25:45;101858.13;;;32.68;42.92
69751;BME280;57335;52.288;6.056;2023-06-22T07:28:11;101853.56;;;32.60;43.40
69751;BME280;57335;52.288;6.056;2023-06-22T07:30:38;101851.44;;;32.66;43.18
69751;BME280;57335;52.288;6.056;2023-06-22T07:33:04;101846.69;;;32.96;43.42
69751;BME280;57335;52.288;6.056;2023-06-22T07:35:32;101854.72;;;33.26;42.78
69751;BME280;57335;52.288;6.056;2023-06-22T07:37:59;101852.50;;;33.52;40.99
69751;BME280;57335;52.288;6.056;2023-06-22T07:40:31;101852.97;;;33.79;41.99
69751;BME280;57335;52.288;6.056;2023-06-22T07:42:58;101849.13;;;33.92;39.36
69751;BME280;57335;52.288;6.056;2023-06-22T07:45:24;101859.75;;;33.97;39.04
69751;BME280;57335;52.288;6.056;2023-06-22T07:47:51;101853.22;;;33.74;40.60
69751;BME280;57335;52.288;6.056;2023-06-22T07:50:17;101856.56;;;33.58;39.51
69751;BME280;57335;52.288;6.056;2023-06-22T07:52:44;101846.59;;;33.50;41.41
69751;BME280;57335;52.288;6.056;2023-06-22T07:55:10;101845.34;;;33.48;39.78
69751;BME280;57335;52.288;6.056;2023-06-22T07:57:37;101837.13;;;33.11;41.47
69751;BME280;57335;52.288;6.056;2023-06-22T08:00:05;101831.13;;;32.30;41.70
69751;BME280;57335;52.288;6.056;2023-06-22T08:02:31;101841.81;;;31.96;43.28
69751;BME280;57335;52.288;6.056;2023-06-22T08:04:58;101835.78;;;31.91;43.92
69751;BME280;57335;52.288;6.056;2023-06-22T08:07:41;101831.06;;;31.79;43.77
69751;BME280;57335;52.288;6.056;2023-06-22T08:10:10;101836.00;;;31.77;44.00
69751;BME280;57335;52.288;6.056;2023-06-22T08:12:38;101836.00;;;31.77;43.87
69751;BME280;57335;52.288;6.056;2023-06-22T08:15:06;101824.84;;;31.40;42.94
69751;BME280;57335;52.288;6.056;2023-06-22T08:17:32;101821.88;;;31.07;45.82
69751;BME280;57335;52.288;6.056;2023-06-22T08:19:59;101826.22;;;30.81;44.92
69751;BME280;57335;52.288;6.056;2023-06-22T08:22:25;101828.59;;;30.66;44.49
69751;BME280;57335;52.288;6.056;2023-06-22T08:24:52;101813.72;;;30.11;47.34
69751;BME280;57335;52.288;6.056;2023-06-22T08:27:18;101809.75;;;29.68;47.21
69751;BME280;57335;52.288;6.056;2023-06-22T08:29:45;101803.44;;;29.33;49.84
69751;BME280;57335;52.288;6.056;2023-06-22T08:32:11;101798.75;;;29.24;50.31
69751;BME280;57335;52.288;6.056;2023-06-22T08:34:38;101800.53;;;29.60;48.35
69751;BME280;57335;52.288;6.056;2023-06-22T08:37:05;101793.34;;;30.05;47.66
69751;BME280;57335;52.288;6.056;2023-06-22T08:39:32;101787.56;;;30.37;47.20
69751;BME280;57335;52.288;6.056;2023-06-22T08:42:01;101787.16;;;30.13;47.46
69751;BME280;57335;52.288;6.056;2023-06-22T08:44:27;101783.38;;;30.14;48.71
69751;BME280;57335;52.288;6.056;2023-06-22T08:46:54;101777.41;;;29.77;47.48
69751;BME280;57335;52.288;6.056;2023-06-22T08:49:20;101771.84;;;29.82;48.46
69751;BME280;57335;52.288;6.056;2023-06-22T08:51:47;101756.94;;;30.11;48.83
69751;BME280;57335;52.288;6.056;2023-06-22T08:54:14;101768.47;;;30.51;47.90
69751;BME280;57335;52.288;6.056;2023-06-22T08:56:41;101760.31;;;30.77;45.95
69751;BME280;57335;52.288;6.056;2023-06-22T08:59:07;101753.94;;;30.82;44.96
69751;BME280;57335;52.288;6.056;2023-06-22T09:01:34;101747.38;;;30.83;44.84
69751;BME280;57335;52.288;6.056;2023-06-22T09:04:00;101753.94;;;30.73;45.10
69751;BME280;57335;52.288;6.056;2023-06-22T09:06:27;101741.88;;;30.27;48.22
69751;BME280;57335;52.288;6.056;2023-06-22T09:08:53;101750.41;;;29.94;47.47
69751;BME280;57335;52.288;6.056;2023-06-22T09:11:20;101743.03;;;29.29;49.33
69751;BME280;57335;52.288;6.056;2023-06-22T09:13:46;101745.63;;;28.80;51.35
69751;BME280;57335;52.288;6.056;2023-06-22T09:16:13;101744.16;;;28.74;52.05
69751;BME280;57335;52.288;6.056;2023-06-22T09:18:39;101751.69;;;28.86;51.84
69751;BME280;57335;52.288;6.056;2023-06-22T09:21:06;101753.03;;;29.19;49.79
69751;BME280;57335;52.288;6.056;2023-06-22T09:23:32;101747.38;;;29.38;49.52
69751;BME280;57335;52.288;6.056;2023-06-22T09:25:59;101743.19;;;29.23;49.46
69751;BME280;57335;52.288;6.056;2023-06-22T09:28:26;101748.06;;;28.45;51.49
69751;BME280;57335;52.288;6.056;2023-06-22T09:30:52;101755.50;;;28.25;52.18
69751;BME280;57335;52.288;6.056;2023-06-22T09:33:18;101747.59;;;28.29;51.21
69751;BME280;57335;52.288;6.056;2023-06-22T09:35:45;101750.00;;;28.31;52.89
69751;BME280;57335;52.288;6.056;2023-06-22T09:38:11;101743.19;;;28.33;52.82
69751;BME280;57335;52.288;6.056;2023-06-22T09:40:38;101746.63;;;28.25;53.97
69751;BME280;57335;52.288;6.056;2023-06-22T09:43:04;101751.81;;;28.21;53.62
69751;BME280;57335;52.288;6.056;2023-06-22T09:45:30;101743.75;;;28.08;51.83
69751;BME280;57335;52.288;6.056;2023-06-22T09:47:57;101742.47;;;27.63;53.42
69751;BME280;57335;52.288;6.056;2023-06-22T09:50:23;101747.06;;;27.63;55.52
69751;BME280;57335;52.288;6.056;2023-06-22T09:52:50;101742.69;;;27.81;54.73
69751;BME280;57335;52.288;6.056;2023-06-22T09:55:16;101740.06;;;28.03;55.33
69751;BME280;57335;52.288;6.056;2023-06-22T09:57:43;101740.97;;;28.13;53.65
69751;BME280;57335;52.288;6.056;2023-06-22T10:00:10;101735.44;;;28.18;55.05
69751;BME280;57335;52.288;6.056;2023-06-22T10:02:36;101741.09;;;28.30;53.72
69751;BME280;57335;52.288;6.056;2023-06-22T10:05:03;101735.91;;;28.34;53.06
69751;BME280;57335;52.288;6.056;2023-06-22T10:07:30;101733.41;;;28.37;53.19
69751;BME280;57335;52.288;6.056;2023-06-22T10:09:57;101735.66;;;28.44;53.46
69751;BME280;57335;52.288;6.056;2023-06-22T10:12:23;101738.34;;;28.21;53.03
69751;BME280;57335;52.288;6.056;2023-06-22T10:14:50;101730.56;;;28.06;53.15
69751;BME280;57335;52.288;6.056;2023-06-22T10:17:17;101727.81;;;27.97;53.09
69751;BME280;57335;52.288;6.056;2023-06-22T10:19:43;101727.09;;;27.78;54.51
69751;BME280;57335;52.288;6.056;2023-06-22T10:22:10;101733.41;;;27.45;54.87
69751;BME280;57335;52.288;6.056;2023-06-22T10:24:36;101728.28;;;27.16;56.50
69751;BME280;57335;52.288;6.056;2023-06-22T10:27:03;101723.97;;;27.15;56.42
69751;BME280;57335;52.288;6.056;2023-06-22T10:29:29;101734.44;;;27.17;56.01
69751;BME280;57335;52.288;6.056;2023-06-22T10:31:56;101731.44;;;27.04;56.45
69751;BME280;57335;52.288;6.056;2023-06-22T10:34:22;101729.25;;;27.06;55.68
69751;BME280;57335;52.288;6.056;2023-06-22T10:36:49;101737.06;;;26.89;56.01
69751;BME280;57335;52.288;6.056;2023-06-22T10:39:15;101736.97;;;26.80;56.48
69751;BME280;57335;52.288;6.056;2023-06-22T10:41:42;101739.56;;;26.85;56.77
69751;BME280;57335;52.288;6.056;2023-06-22T10:44:08;101738.59;;;26.95;56.74
69751;BME280;57335;52.288;6.056;2023-06-22T10:46:35;101734.31;;;27.08;55.43
69751;BME280;57335;52.288;6.056;2023-06-22T10:49:01;101734.44;;;27.17;54.19
69751;BME280;57335;52.288;6.056;2023-06-22T10:51:28;101729.44;;;27.10;54.31
69751;BME280;57335;52.288;6.056;2023-06-22T10:53:54;101723.25;;;27.10;55.28
69751;BME280;57335;52.288;6.056;2023-06-22T10:56:21;101736.50;;;27.06;54.82
69751;BME280;57335;52.288;6.056;2023-06-22T10:58:47;101722.72;;;26.94;55.59
69751;BME280;57335;52.288;6.056;2023-06-22T11:01:14;101728.88;;;26.80;55.19
69751;BME280;57335;52.288;6.056;2023-06-22T11:04:00;101727.66;;;26.54;56.08
69751;BME280;57335;52.288;6.056;2023-06-22T11:06:27;101726.28;;;26.37;57.41
69751;BME280;57335;52.288;6.056;2023-06-22T11:08:53;101720.94;;;26.18;56.97
69751;BME280;57335;52.288;6.056;2023-06-22T11:11:32;101732.59;;;26.09;57.52
69751;BME280;57335;52.288;6.056;2023-06-22T11:13:58;101731.97;;;26.17;57.86
69751;BME280;57335;52.288;6.056;2023-06-22T11:16:25;101723.75;;;26.27;58.53
69751;BME280;57335;52.288;6.056;2023-06-22T11:18:51;101721.34;;;26.44;58.21
69751;BME280;57335;52.288;6.056;2023-06-22T11:21:18;101716.91;;;26.54;57.02
69751;BME280;57335;52.288;6.056;2023-06-22T11:23:45;101706.69;;;26.37;57.53
69751;BME280;57335;52.288;6.056;2023-06-22T11:26:11;101709.75;;;26.30;56.79
69751;BME280;57335;52.288;6.056;2023-06-22T11:28:38;101702.09;;;26.37;58.28
69751;BME280;57335;52.288;6.056;2023-06-22T11:31:04;101706.91;;;26.59;58.27
69751;BME280;57335;52.288;6.056;2023-06-22T11:33:50;101703.81;;;26.66;54.93
69751;BME280;57335;52.288;6.056;2023-06-22T11:36:17;101689.22;;;26.72;57.16
69751;BME280;57335;52.288;6.056;2023-06-22T11:38:43;101686.75;;;26.90;56.55
69751;BME280;57335;52.288;6.056;2023-06-22T11:41:10;101682.00;;;27.00;56.20
69751;BME280;57335;52.288;6.056;2023-06-22T11:43:36;101680.19;;;26.96;56.44
69751;BME280;57335;52.288;6.056;2023-06-22T11:46:03;101672.22;;;26.91;54.10
69751;BME280;57335;52.288;6.056;2023-06-22T11:48:30;101676.28;;;26.74;55.24
69751;BME280;57335;52.288;6.056;2023-06-22T11:50:57;101679.06;;;26.69;55.18
69751;BME280;57335;52.288;6.056;2023-06-22T11:53:26;101687.53;;;26.57;55.31
69751;BME280;57335;52.288;6.056;2023-06-22T11:55:53;101673.88;;;26.54;56.09
69751;BME280;57335;52.288;6.056;2023-06-22T11:58:20;101676.75;;;26.62;57.27
69751;BME280;57335;52.288;6.056;2023-06-22T12:00:47;101662.84;;;26.22;56.61
69751;BME280;57335;52.288;6.056;2023-06-22T12:03:18;101657.19;;;25.81;58.50
69751;BME280;57335;52.288;6.056;2023-06-22T12:05:44;101662.75;;;25.65;60.19
69751;BME280;57335;52.288;6.056;2023-06-22T12:08:11;101659.50;;;25.68;60.83
69751;BME280;57335;52.288;6.056;2023-06-22T12:10:37;101664.88;;;25.68;58.76
69751;BME280;57335;52.288;6.056;2023-06-22T12:13:04;101661.06;;;25.51;58.69
69751;BME280;57335;52.288;6.056;2023-06-22T12:15:30;101658.50;;;25.40;59.51
69751;BME280;57335;52.288;6.056;2023-06-22T12:17:57;101663.53;;;25.23;59.79
69751;BME280;57335;52.288;6.056;2023-06-22T12:20:23;101652.53;;;25.19;60.83
69751;BME280;57335;52.288;6.056;2023-06-22T12:22:51;101653.66;;;25.13;60.79
69751;BME280;57335;52.288;6.056;2023-06-22T12:25:18;101658.94;;;25.23;62.01
69751;BME280;57335;52.288;6.056;2023-06-22T12:27:44;101652.69;;;25.33;62.63
69751;BME280;57335;52.288;6.056;2023-06-22T12:30:11;101647.78;;;25.40;61.83
69751;BME280;57335;52.288;6.056;2023-06-22T12:32:37;101642.22;;;25.32;62.03
69751;BME280;57335;52.288;6.056;2023-06-22T12:35:04;101647.66;;;25.26;61.54
69751;BME280;57335;52.288;6.056;2023-06-22T12:37:30;101647.16;;;25.24;62.67
69751;BME280;57335;52.288;6.056;2023-06-22T12:39:57;101637.56;;;25.13;63.32
69751;BME280;57335;52.288;6.056;2023-06-22T12:42:23;101634.78;;;24.99;62.29
69751;BME280;57335;52.288;6.056;2023-06-22T12:44:50;101635.91;;;24.93;61.86
69751;BME280;57335;52.288;6.056;2023-06-22T12:47:17;101634.09;;;24.88;61.29
69751;BME280;57335;52.288;6.056;2023-06-22T12:49:43;101626.06;;;24.83;61.13